Lena — V2FR — position and weather

sailwx.info

Track history (hours):
 
Tides and Currents Weather Stations Pressure Air Temp Water Temp Dewpoint Dewpoint Depression Visibility Wind Speed Wind Dir Waves Ship Positions

Lena

Last reported at 2014-Jul-20 10:33 UTC. Time now 2014-Jul-25 16:02 UTC.
Position N 22°24' E 113°53'.

Length 152 m; draft 7.5 m.

Type: Cargo ship. MMSI: 304080808.

Date/timePositionNaut miles runAvg speedWind from/ knotsBaromVisibWave heightAir tempDewpointWater temp
2014-Jul-20 10:33N 22°24' E 113°53'4 3.7
2014-Jul-20 09:22N 22°29' E 113°53'0 0.0
2014-Jul-20 08:28N 22°29' E 113°53'0 0.0
2014-Jul-20 07:33N 22°29' E 113°53'0 0.0
2014-Jul-20 06:33N 22°29' E 113°53'0 0.0
2014-Jul-20 05:32N 22°29' E 113°53'0 0.0
2014-Jul-20 04:26N 22°29' E 113°53'0 0.0
2014-Jul-20 03:19N 22°29' E 113°53'0 0.0
2014-Jul-20 02:31N 22°29' E 113°53'0 0.0
2014-Jul-20 01:31N 22°29' E 113°53'0 0.0
2014-Jul-20 00:18N 22°29' E 113°53'0 0.0
2014-Jul-19 21:11N 22°29' E 113°53'0 0.0
2014-Jul-19 20:28N 22°29' E 113°53'0 0.0
2014-Jul-19 19:28N 22°29' E 113°53'0 0.0
2014-Jul-19 16:21N 22°29' E 113°53'0 0.0
2014-Jul-19 15:08N 22°29' E 113°53'0 0.0
2014-Jul-19 14:32N 22°29' E 113°53'0 0.0
2014-Jul-19 13:13N 22°29' E 113°53'0 0.0
2014-Jul-19 11:31N 22°29' E 113°53'5 5.4
2014-Jul-19 10:34N 22°23' E 113°54'11 9.4
2014-Jul-19 09:25N 22°20' E 114°05'23614.6
2014-Jul-18 17:18N 23°39' E 118°06'3416.4
2014-Jul-18 15:13N 24°01' E 118°35'4416.6
2014-Jul-18 12:33N 24°30' E 119°12'1716.7
2014-Jul-18 11:33N 24°41' E 119°25'41117.1
2014-Jul-17 11:33N 30°46' E 122°59'6815.6
2014-Jul-17 07:11N 31°17' E 121°48'711.0
2014-Jul-17 06:30N 31°21' E 121°40'4 3.7
2014-Jul-17 05:33N 31°22' E 121°37'5 5.5
2014-Jul-17 04:33N 31°25' E 121°31'1010.1
2014-Jul-17 03:32N 31°32' E 121°22'  
2014-Jul-14 08:06N 31°42' E 121°09'0 0.0
2014-Jul-12 15:21N 31°42' E 121°09'0 0.5
2014-Jul-12 14:31N 31°42' E 121°09'7 5.0
2014-Jul-12 13:04N 31°38' E 121°16'0 0.1
2014-Jul-12 12:31N 31°38' E 121°16'0 0.0
2014-Jul-12 08:20N 31°38' E 121°16'0 0.0
2014-Jul-12 07:31N 31°38' E 121°16'0 0.1
2014-Jul-12 05:27N 31°38' E 121°16'3 3.0
2014-Jul-12 04:33N 31°36' E 121°18'1212.2
2014-Jul-12 03:33N 31°28' E 121°28'8 8.3
2014-Jul-12 02:33N 31°23' E 121°36'1110.8
2014-Jul-12 01:33N 31°16' E 121°46'1512.1
2014-Jul-12 00:17N 31°06' E 121°59'1212.9
2014-Jul-11 23:22N 31°03' E 122°13'1212.9
2014-Jul-11 22:24N 31°01' E 122°27'  
Track history (hours):
 
Tides and Currents Weather Stations Pressure Air Temp Water Temp Dewpoint Dewpoint Depression Visibility Wind Speed Wind Dir Waves Ship Positions

Lena

Last reported at 2014-Jul-20 10:33 UTC. Time now 2014-Jul-25 16:02 UTC.
Position N 22°24' E 113°53'.

Length 152 m; draft 7.5 m.

Type: Cargo ship. MMSI: 304080808.

Date/timePositionNaut miles runAvg speedWind from/ knotsBaromVisibWave heightAir tempDewpointWater temp
2014-Jul-20 10:33N 22°24' E 113°53'4 3.7
2014-Jul-20 09:22N 22°29' E 113°53'0 0.0
2014-Jul-20 08:28N 22°29' E 113°53'0 0.0
2014-Jul-20 07:33N 22°29' E 113°53'0 0.0
2014-Jul-20 06:33N 22°29' E 113°53'0 0.0
2014-Jul-20 05:32N 22°29' E 113°53'0 0.0
2014-Jul-20 04:26N 22°29' E 113°53'0 0.0
2014-Jul-20 03:19N 22°29' E 113°53'0 0.0
2014-Jul-20 02:31N 22°29' E 113°53'0 0.0
2014-Jul-20 01:31N 22°29' E 113°53'0 0.0
2014-Jul-20 00:18N 22°29' E 113°53'0 0.0
2014-Jul-19 21:11N 22°29' E 113°53'0 0.0
2014-Jul-19 20:28N 22°29' E 113°53'0 0.0
2014-Jul-19 19:28N 22°29' E 113°53'0 0.0
2014-Jul-19 16:21N 22°29' E 113°53'0 0.0
2014-Jul-19 15:08N 22°29' E 113°53'0 0.0
2014-Jul-19 14:32N 22°29' E 113°53'0 0.0
2014-Jul-19 13:13N 22°29' E 113°53'0 0.0
2014-Jul-19 11:31N 22°29' E 113°53'5 5.4
2014-Jul-19 10:34N 22°23' E 113°54'11 9.4
2014-Jul-19 09:25N 22°20' E 114°05'23614.6
2014-Jul-18 17:18N 23°39' E 118°06'3416.4
2014-Jul-18 15:13N 24°01' E 118°35'4416.6
2014-Jul-18 12:33N 24°30' E 119°12'1716.7
2014-Jul-18 11:33N 24°41' E 119°25'41117.1
2014-Jul-17 11:33N 30°46' E 122°59'6815.6
2014-Jul-17 07:11N 31°17' E 121°48'711.0
2014-Jul-17 06:30N 31°21' E 121°40'4 3.7
2014-Jul-17 05:33N 31°22' E 121°37'5 5.5
2014-Jul-17 04:33N 31°25' E 121°31'1010.1
2014-Jul-17 03:32N 31°32' E 121°22'  
2014-Jul-14 08:06N 31°42' E 121°09'0 0.0
2014-Jul-12 15:21N 31°42' E 121°09'0 0.5
2014-Jul-12 14:31N 31°42' E 121°09'7 5.0
2014-Jul-12 13:04N 31°38' E 121°16'0 0.1
2014-Jul-12 12:31N 31°38' E 121°16'0 0.0
2014-Jul-12 08:20N 31°38' E 121°16'0 0.0
2014-Jul-12 07:31N 31°38' E 121°16'0 0.1
2014-Jul-12 05:27N 31°38' E 121°16'3 3.0
2014-Jul-12 04:33N 31°36' E 121°18'1212.2
2014-Jul-12 03:33N 31°28' E 121°28'8 8.3
2014-Jul-12 02:33N 31°23' E 121°36'1110.8
2014-Jul-12 01:33N 31°16' E 121°46'1512.1
2014-Jul-12 00:17N 31°06' E 121°59'1212.9
2014-Jul-11 23:22N 31°03' E 122°13'1212.9
2014-Jul-11 22:24N 31°01' E 122°27'  

Dump ship's entire track history